JBU2848 KLAX-KLAS
Flight info
| Callsign | JBU2848 |
|---|---|
| Flight time | 0h 46m |
| Altitude | 23500 |
| Route | KLAX ORCKA5 VIA HAILOA KLAS |
| Aircraft | A21N/M-S/L |
Departure
| Time | 2026-05-05 15:51 |
|---|---|
| Airport | Los Angeles International Airport (KLAX) |
Arrival
| Time | 2026-05-05 16:38 |
|---|---|
| Airport | Harry Reid International Airport (KLAS) |
| Time | Latitude | Longitude | Altitude | Speed | Heading |
|---|---|---|---|---|---|
| 2026-05-05 15:29 | 33.94674 | -118.40329 | 129 ft | 0 kts | 263° |
| 2026-05-05 15:44 | 33.94674 | -118.40331 | 123 ft | 2 kts | 263° |
| 2026-05-05 15:44 | 33.94676 | -118.40312 | 124 ft | 2 kts | 263° |
| 2026-05-05 15:45 | 33.94678 | -118.40292 | 125 ft | 2 kts | 263° |
| 2026-05-05 15:45 | 33.94678 | -118.40273 | 124 ft | 2 kts | 304° |
| 2026-05-05 15:45 | 33.94667 | -118.40262 | 123 ft | 0 kts | 353° |
| 2026-05-05 15:47 | 33.94689 | -118.40258 | 125 ft | 6 kts | 16° |
| 2026-05-05 15:47 | 33.94724 | -118.40256 | 126 ft | 8 kts | 350° |
| 2026-05-05 15:47 | 33.94822 | -118.40279 | 126 ft | 13 kts | 340° |
| 2026-05-05 15:47 | 33.94890 | -118.40260 | 123 ft | 10 kts | 53° |
| 2026-05-05 15:48 | 33.94907 | -118.40183 | 127 ft | 10 kts | 82° |
| 2026-05-05 15:48 | 33.94918 | -118.40084 | 125 ft | 14 kts | 83° |
| 2026-05-05 15:48 | 33.94933 | -118.39959 | 129 ft | 16 kts | 72° |
| 2026-05-05 15:48 | 33.94950 | -118.39928 | 125 ft | 0 kts | 40° |
| 2026-05-05 15:49 | 33.94955 | -118.39924 | 125 ft | 3 kts | 34° |
| 2026-05-05 15:50 | 33.94986 | -118.39913 | 126 ft | 6 kts | 1° |
| 2026-05-05 15:50 | 33.95032 | -118.39926 | 126 ft | 6 kts | 328° |
| 2026-05-05 15:50 | 33.95042 | -118.39957 | 124 ft | 4 kts | 270° |
| 2026-05-05 15:50 | 33.95030 | -118.40065 | 127 ft | 45 kts | 263° |
| 2026-05-05 15:51 | 33.94950 | -118.40856 | 125 ft | 146 kts | 263° |
| 2026-05-05 15:51 | 33.94796 | -118.42365 | 309 ft | 204 kts | 264° |
| 2026-05-05 15:51 | 33.94615 | -118.44142 | 915 ft | 216 kts | 262° |
| 2026-05-05 15:51 | 33.94385 | -118.45918 | 1519 ft | 215 kts | 261° |
| 2026-05-05 15:52 | 33.94144 | -118.47749 | 1950 ft | 226 kts | 261° |
| 2026-05-05 15:52 | 33.93898 | -118.49647 | 2467 ft | 232 kts | 261° |
| 2026-05-05 15:52 | 33.93559 | -118.51574 | 3019 ft | 238 kts | 252° |
| 2026-05-05 15:52 | 33.92726 | -118.53307 | 3579 ft | 244 kts | 227° |
| 2026-05-05 15:53 | 33.91302 | -118.54412 | 4153 ft | 248 kts | 199° |
| 2026-05-05 15:53 | 33.89588 | -118.54526 | 4769 ft | 251 kts | 169° |
| 2026-05-05 15:53 | 33.88041 | -118.53614 | 5472 ft | 250 kts | 140° |
| 2026-05-05 15:53 | 33.86966 | -118.51932 | 5952 ft | 258 kts | 121° |
| 2026-05-05 15:54 | 33.86030 | -118.50042 | 6398 ft | 267 kts | 121° |
| 2026-05-05 15:54 | 33.85053 | -118.48100 | 6828 ft | 275 kts | 121° |
| 2026-05-05 15:54 | 33.84075 | -118.46101 | 7350 ft | 280 kts | 120° |
| 2026-05-05 15:54 | 33.83417 | -118.44762 | 7703 ft | 282 kts | 121° |
| 2026-05-05 15:55 | 33.82396 | -118.42731 | 8245 ft | 285 kts | 121° |
| 2026-05-05 15:55 | 33.81371 | -118.40680 | 8801 ft | 287 kts | 121° |
| 2026-05-05 15:55 | 33.80339 | -118.38610 | 9370 ft | 290 kts | 121° |
| 2026-05-05 15:55 | 33.79298 | -118.36521 | 9951 ft | 293 kts | 121° |
| 2026-05-05 15:56 | 33.77965 | -118.33654 | 10704 ft | 300 kts | 115° |
| 2026-05-05 15:56 | 33.77443 | -118.32068 | 11104 ft | 304 kts | 108° |
| 2026-05-05 15:56 | 33.76964 | -118.29586 | 11731 ft | 307 kts | 97° |
| 2026-05-05 15:56 | 33.76865 | -118.27024 | 12377 ft | 308 kts | 88° |
| 2026-05-05 15:57 | 33.76936 | -118.24437 | 13043 ft | 309 kts | 86° |
| 2026-05-05 15:57 | 33.77064 | -118.21889 | 13672 ft | 303 kts | 85° |
| 2026-05-05 15:57 | 33.77258 | -118.19386 | 14256 ft | 298 kts | 83° |
| 2026-05-05 15:57 | 33.77522 | -118.16932 | 14821 ft | 294 kts | 81° |
| 2026-05-05 15:58 | 33.77812 | -118.14508 | 15362 ft | 290 kts | 82° |
| 2026-05-05 15:58 | 33.77993 | -118.12110 | 15877 ft | 286 kts | 87° |
| 2026-05-05 15:58 | 33.78103 | -118.09768 | 16400 ft | 282 kts | 85° |
| 2026-05-05 15:58 | 33.78265 | -118.07427 | 16926 ft | 280 kts | 84° |
| 2026-05-05 15:59 | 33.78690 | -118.05146 | 17428 ft | 275 kts | 59° |
| 2026-05-05 15:59 | 33.79859 | -118.03412 | 17925 ft | 270 kts | 45° |
| 2026-05-05 15:59 | 33.81149 | -118.01761 | 18294 ft | 274 kts | 46° |
| 2026-05-05 15:59 | 33.82423 | -117.99993 | 18489 ft | 285 kts | 50° |
| 2026-05-05 16:00 | 33.83686 | -117.98094 | 18638 ft | 296 kts | 50° |
| 2026-05-05 16:00 | 33.84997 | -117.96115 | 18796 ft | 307 kts | 50° |
| 2026-05-05 16:00 | 33.86390 | -117.94111 | 18946 ft | 318 kts | 47° |
| 2026-05-05 16:00 | 33.87881 | -117.92090 | 19116 ft | 328 kts | 48° |
| 2026-05-05 16:01 | 33.89406 | -117.89994 | 19332 ft | 335 kts | 48° |
| 2026-05-05 16:01 | 33.90918 | -117.87846 | 19659 ft | 338 kts | 49° |
| 2026-05-05 16:01 | 33.92444 | -117.85644 | 19832 ft | 346 kts | 49° |
| 2026-05-05 16:01 | 33.94007 | -117.83387 | 20025 ft | 355 kts | 49° |
| 2026-05-05 16:02 | 33.95608 | -117.81078 | 20187 ft | 363 kts | 49° |
| 2026-05-05 16:02 | 33.97244 | -117.78719 | 20329 ft | 371 kts | 49° |
| 2026-05-05 16:02 | 33.98913 | -117.76312 | 20461 ft | 378 kts | 49° |
| 2026-05-05 16:02 | 34.00720 | -117.73986 | 20568 ft | 383 kts | 44° |
| 2026-05-05 16:03 | 34.02553 | -117.71618 | 20713 ft | 389 kts | 48° |
| 2026-05-05 16:03 | 34.04319 | -117.69110 | 20816 ft | 394 kts | 49° |
| 2026-05-05 16:03 | 34.06088 | -117.66562 | 20907 ft | 398 kts | 49° |
| 2026-05-05 16:03 | 34.07873 | -117.63991 | 20988 ft | 402 kts | 49° |
| 2026-05-05 16:04 | 34.09689 | -117.61378 | 21146 ft | 413 kts | 49° |
| 2026-05-05 16:04 | 34.11568 | -117.58676 | 21455 ft | 427 kts | 49° |
| 2026-05-05 16:04 | 34.13503 | -117.55897 | 21769 ft | 438 kts | 49° |
| 2026-05-05 16:04 | 34.15492 | -117.53041 | 22114 ft | 449 kts | 49° |
| 2026-05-05 16:05 | 34.17531 | -117.50119 | 22378 ft | 460 kts | 49° |
| 2026-05-05 16:05 | 34.19586 | -117.47173 | 22612 ft | 469 kts | 49° |
| 2026-05-05 16:05 | 34.21695 | -117.44160 | 22686 ft | 471 kts | 49° |
| 2026-05-05 16:05 | 34.23822 | -117.41129 | 22775 ft | 470 kts | 49° |
| 2026-05-05 16:06 | 34.25905 | -117.38144 | 22578 ft | 460 kts | 49° |
| 2026-05-05 16:06 | 34.27947 | -117.35209 | 22447 ft | 452 kts | 49° |
| 2026-05-05 16:06 | 34.29938 | -117.32366 | 22845 ft | 435 kts | 49° |
| 2026-05-05 16:06 | 34.31892 | -117.29614 | 22921 ft | 428 kts | 49° |
| 2026-05-05 16:07 | 34.33804 | -117.26878 | 22985 ft | 424 kts | 49° |
| 2026-05-05 16:07 | 34.35699 | -117.24153 | 22982 ft | 423 kts | 49° |
| 2026-05-05 16:07 | 34.37592 | -117.21425 | 22971 ft | 422 kts | 49° |
| 2026-05-05 16:07 | 34.39537 | -117.18761 | 22964 ft | 422 kts | 45° |
| 2026-05-05 16:08 | 34.41635 | -117.16290 | 22944 ft | 421 kts | 40° |
| 2026-05-05 16:08 | 34.43905 | -117.14048 | 22943 ft | 420 kts | 35° |
| 2026-05-05 16:08 | 34.46322 | -117.12058 | 22935 ft | 419 kts | 30° |
| 2026-05-05 16:08 | 34.48857 | -117.10321 | 22928 ft | 419 kts | 27° |
| 2026-05-05 16:09 | 34.51458 | -117.08737 | 22926 ft | 418 kts | 24° |
| 2026-05-05 16:09 | 34.54127 | -117.07343 | 22941 ft | 417 kts | 19° |
| 2026-05-05 16:09 | 34.56808 | -117.06003 | 22919 ft | 417 kts | 24° |
| 2026-05-05 16:09 | 34.59301 | -117.04189 | 22923 ft | 418 kts | 36° |
| 2026-05-05 16:10 | 34.61501 | -117.01874 | 22937 ft | 418 kts | 43° |
| 2026-05-05 16:10 | 34.63600 | -116.99430 | 22938 ft | 418 kts | 44° |
| 2026-05-05 16:10 | 34.65652 | -116.96925 | 22932 ft | 418 kts | 45° |
| 2026-05-05 16:10 | 34.67677 | -116.94389 | 22933 ft | 418 kts | 45° |
| 2026-05-05 16:11 | 34.69671 | -116.91882 | 22940 ft | 418 kts | 45° |
| 2026-05-05 16:11 | 34.75746 | -116.84261 | 22957 ft | 418 kts | 45° |
| 2026-05-05 16:12 | 34.77777 | -116.81725 | 22970 ft | 418 kts | 45° |
| 2026-05-05 16:12 | 34.81839 | -116.76660 | 22958 ft | 418 kts | 45° |
| 2026-05-05 16:13 | 34.87930 | -116.69057 | 22959 ft | 418 kts | 45° |
| 2026-05-05 16:13 | 34.89961 | -116.66527 | 22954 ft | 417 kts | 45° |
| 2026-05-05 16:13 | 34.91993 | -116.63995 | 22950 ft | 417 kts | 45° |
| 2026-05-05 16:14 | 34.95938 | -116.58810 | 22954 ft | 417 kts | 51° |
| 2026-05-05 16:14 | 34.98993 | -116.52813 | 22925 ft | 417 kts | 61° |
| 2026-05-05 16:15 | 35.01797 | -116.46627 | 22935 ft | 417 kts | 61° |
| 2026-05-05 16:15 | 35.04601 | -116.40437 | 22908 ft | 416 kts | 61° |
| 2026-05-05 16:16 | 35.07390 | -116.34281 | 22936 ft | 417 kts | 61° |
| 2026-05-05 16:16 | 35.10195 | -116.28086 | 22920 ft | 417 kts | 61° |
| 2026-05-05 16:17 | 35.13006 | -116.21892 | 22933 ft | 417 kts | 61° |
| 2026-05-05 16:17 | 35.14414 | -116.18798 | 22925 ft | 416 kts | 61° |
| 2026-05-05 16:18 | 35.17230 | -116.12612 | 22943 ft | 416 kts | 61° |
| 2026-05-05 16:18 | 35.18638 | -116.09520 | 22945 ft | 416 kts | 61° |
| 2026-05-05 16:18 | 35.21453 | -116.03337 | 22931 ft | 416 kts | 61° |
| 2026-05-05 16:19 | 35.22859 | -116.00248 | 22954 ft | 416 kts | 61° |
| 2026-05-05 16:19 | 35.24267 | -115.97156 | 22949 ft | 416 kts | 61° |
| 2026-05-05 16:19 | 35.27000 | -115.90909 | 22946 ft | 417 kts | 63° |
| 2026-05-05 16:20 | 35.29671 | -115.84597 | 22965 ft | 418 kts | 64° |
| 2026-05-05 16:20 | 35.32371 | -115.78352 | 22955 ft | 418 kts | 57° |
| 2026-05-05 16:21 | 35.36044 | -115.72831 | 22959 ft | 418 kts | 48° |
| 2026-05-05 16:22 | 35.41870 | -115.64879 | 22958 ft | 418 kts | 48° |
| 2026-05-05 16:22 | 35.45756 | -115.59588 | 22967 ft | 417 kts | 48° |
| 2026-05-05 16:23 | 35.49652 | -115.54293 | 22961 ft | 417 kts | 48° |
| 2026-05-05 16:23 | 35.51596 | -115.51650 | 22965 ft | 417 kts | 48° |
| 2026-05-05 16:23 | 35.55467 | -115.46389 | 22595 ft | 408 kts | 48° |
| 2026-05-05 16:24 | 35.57376 | -115.43790 | 21511 ft | 411 kts | 48° |
| 2026-05-05 16:24 | 35.59264 | -115.41216 | 20308 ft | 418 kts | 48° |
| 2026-05-05 16:24 | 35.63203 | -115.35817 | 17735 ft | 430 kts | 48° |
| 2026-05-05 16:25 | 35.65178 | -115.33114 | 16690 ft | 427 kts | 48° |
| 2026-05-05 16:25 | 35.69012 | -115.27941 | 15899 ft | 390 kts | 48° |
| 2026-05-05 16:25 | 35.70804 | -115.25544 | 15578 ft | 372 kts | 48° |
| 2026-05-05 16:26 | 35.74174 | -115.21068 | 15052 ft | 341 kts | 48° |
| 2026-05-05 16:26 | 35.77284 | -115.16974 | 14496 ft | 317 kts | 48° |
| 2026-05-05 16:27 | 35.78782 | -115.15012 | 14059 ft | 312 kts | 48° |
| 2026-05-05 16:27 | 35.80263 | -115.13072 | 13558 ft | 309 kts | 48° |
| 2026-05-05 16:27 | 35.81735 | -115.11151 | 13021 ft | 307 kts | 48° |
| 2026-05-05 16:27 | 35.83192 | -115.09245 | 12476 ft | 305 kts | 48° |
| 2026-05-05 16:28 | 35.84638 | -115.07350 | 11973 ft | 302 kts | 47° |
| 2026-05-05 16:28 | 35.86072 | -115.05467 | 11533 ft | 299 kts | 47° |
| 2026-05-05 16:28 | 35.87467 | -115.03631 | 11333 ft | 287 kts | 48° |
| 2026-05-05 16:28 | 35.88695 | -115.02017 | 11105 ft | 279 kts | 47° |
| 2026-05-05 16:29 | 35.89997 | -115.00305 | 10708 ft | 276 kts | 48° |
| 2026-05-05 16:29 | 35.91318 | -114.98586 | 10256 ft | 277 kts | 48° |
| 2026-05-05 16:29 | 35.92640 | -114.96865 | 9873 ft | 274 kts | 47° |
| 2026-05-05 16:29 | 35.93952 | -114.95160 | 9422 ft | 273 kts | 48° |
| 2026-05-05 16:30 | 35.95252 | -114.93467 | 8998 ft | 271 kts | 47° |
| 2026-05-05 16:30 | 35.96547 | -114.91795 | 8600 ft | 268 kts | 48° |
| 2026-05-05 16:30 | 35.97832 | -114.90148 | 8224 ft | 264 kts | 48° |
| 2026-05-05 16:30 | 35.99084 | -114.88551 | 8054 ft | 253 kts | 48° |
| 2026-05-05 16:31 | 36.00277 | -114.87023 | 7932 ft | 241 kts | 50° |
| 2026-05-05 16:31 | 36.01084 | -114.85298 | 7647 ft | 229 kts | 80° |
| 2026-05-05 16:31 | 36.01041 | -114.83395 | 7281 ft | 221 kts | 112° |
| 2026-05-05 16:31 | 36.00180 | -114.81875 | 6899 ft | 216 kts | 145° |
| 2026-05-05 16:32 | 35.98805 | -114.81228 | 6497 ft | 214 kts | 179° |
| 2026-05-05 16:32 | 35.97389 | -114.81666 | 6148 ft | 213 kts | 212° |
| 2026-05-05 16:32 | 35.96422 | -114.83028 | 5793 ft | 216 kts | 245° |
| 2026-05-05 16:32 | 35.96215 | -114.84865 | 5454 ft | 221 kts | 273° |
| 2026-05-05 16:33 | 35.96485 | -114.86728 | 5163 ft | 220 kts | 280° |
| 2026-05-05 16:33 | 35.96926 | -114.88498 | 4945 ft | 220 kts | 296° |
| 2026-05-05 16:33 | 35.97832 | -114.90016 | 4924 ft | 218 kts | 309° |
| 2026-05-05 16:33 | 35.98843 | -114.91366 | 4916 ft | 211 kts | 310° |
| 2026-05-05 16:34 | 35.99852 | -114.92676 | 4922 ft | 210 kts | 311° |
| 2026-05-05 16:34 | 36.00856 | -114.93986 | 4924 ft | 210 kts | 311° |
| 2026-05-05 16:34 | 36.01855 | -114.95297 | 4918 ft | 209 kts | 311° |
| 2026-05-05 16:34 | 36.02854 | -114.96610 | 4916 ft | 209 kts | 310° |
| 2026-05-05 16:35 | 36.03862 | -114.97921 | 4805 ft | 210 kts | 312° |
| 2026-05-05 16:35 | 36.04891 | -114.99186 | 4484 ft | 207 kts | 311° |
| 2026-05-05 16:35 | 36.05843 | -115.00521 | 4148 ft | 207 kts | 305° |
| 2026-05-05 16:35 | 36.06670 | -115.01973 | 3862 ft | 206 kts | 299° |
| 2026-05-05 16:36 | 36.07257 | -115.03527 | 3629 ft | 191 kts | 286° |
| 2026-05-05 16:36 | 36.07456 | -115.05040 | 3382 ft | 170 kts | 266° |
| 2026-05-05 16:36 | 36.07410 | -115.06443 | 3026 ft | 158 kts | 264° |
| 2026-05-05 16:36 | 36.07385 | -115.07763 | 2726 ft | 148 kts | 270° |
| 2026-05-05 16:37 | 36.07391 | -115.08985 | 2584 ft | 141 kts | 266° |
| 2026-05-05 16:37 | 36.07377 | -115.10221 | 2416 ft | 144 kts | 268° |
| 2026-05-05 16:37 | 36.07378 | -115.11413 | 2289 ft | 133 kts | 263° |
| 2026-05-05 16:37 | 36.07370 | -115.12584 | 2162 ft | 137 kts | 266° |
| 2026-05-05 16:38 | 36.07364 | -115.13633 | 2121 ft | 82 kts | 270° |
| 2026-05-05 16:38 | 36.07367 | -115.14217 | 2129 ft | 42 kts | 275° |
| 2026-05-05 16:38 | 36.07399 | -115.14418 | 2132 ft | 14 kts | 290° |
| 2026-05-05 16:38 | 36.07432 | -115.14504 | 2130 ft | 12 kts | 300° |
| 2026-05-05 16:39 | 36.07480 | -115.14607 | 2127 ft | 15 kts | 301° |
| 2026-05-05 16:39 | 36.07558 | -115.14654 | 2128 ft | 13 kts | 358° |
| 2026-05-05 16:39 | 36.07660 | -115.14655 | 2127 ft | 14 kts | 1° |
| 2026-05-05 16:39 | 36.07759 | -115.14675 | 2125 ft | 10 kts | 317° |
| 2026-05-05 16:40 | 36.07776 | -115.14727 | 2125 ft | 4 kts | 282° |
| 2026-05-05 16:40 | 36.07782 | -115.14762 | 2125 ft | 4 kts | 282° |
| 2026-05-05 16:40 | 36.07783 | -115.14766 | 2125 ft | 2 kts | 283° |
| 2026-05-05 16:40 | 36.07786 | -115.14776 | 2130 ft | 2 kts | 294° |
| 2026-05-05 16:41 | 36.07808 | -115.14804 | 2126 ft | 7 kts | 324° |
| 2026-05-05 16:41 | 36.07843 | -115.14809 | 2127 ft | 4 kts | 33° |
| 2026-05-05 16:41 | 36.07868 | -115.14769 | 2126 ft | 8 kts | 39° |
| 2026-05-05 16:41 | 36.07937 | -115.14756 | 2123 ft | 13 kts | 338° |
| 2026-05-05 16:42 | 36.08025 | -115.14805 | 2121 ft | 12 kts | 334° |
| 2026-05-05 16:42 | 36.08092 | -115.14841 | 2121 ft | 5 kts | 351° |
| 2026-05-05 16:42 | 36.08119 | -115.14827 | 2120 ft | 3 kts | 44° |
| 2026-05-05 16:42 | 36.08130 | -115.14802 | 2120 ft | 5 kts | 60° |
| 2026-05-05 16:43 | 36.08134 | -115.14794 | 2121 ft | 0 kts | 60° |